createdAt,value
2024-05-09T00:02:57.549Z,14.79
2024-05-09T00:07:29.616Z,15.07
2024-05-09T00:08:02.669Z,15.12
2024-05-09T00:10:39.343Z,15.20
2024-05-09T00:11:07.027Z,15.25
2024-05-09T00:12:07.066Z,15.26
2024-05-09T00:13:07.498Z,15.25
2024-05-09T00:14:07.044Z,15.26
2024-05-09T00:15:06.966Z,15.27
2024-05-09T00:16:06.967Z,15.30
2024-05-09T00:17:07.023Z,15.31
2024-05-09T00:18:07.946Z,15.34
2024-05-09T00:19:07.023Z,15.38
2024-05-09T00:20:14.316Z,15.41
2024-05-09T00:21:08.062Z,15.44
2024-05-09T00:22:06.989Z,15.46
2024-05-09T00:23:07.606Z,15.47
2024-05-09T00:24:06.984Z,15.47
2024-05-09T00:25:07.001Z,15.46
2024-05-09T00:26:07.054Z,15.50
2024-05-09T00:27:07.948Z,15.53
2024-05-09T00:28:07.000Z,15.51
2024-05-09T00:29:07.061Z,15.54
2024-05-09T00:31:38.373Z,15.57
2024-05-09T00:32:11.436Z,15.55
2024-05-09T00:33:11.940Z,15.57
2024-05-09T00:37:51.487Z,15.57
2024-05-09T00:38:24.469Z,15.60
2024-05-09T00:44:11.414Z,15.53
2024-05-09T00:44:42.055Z,15.51
2024-05-09T00:45:42.074Z,15.53
2024-05-09T00:46:42.130Z,15.51
2024-05-09T00:47:42.291Z,15.50
2024-05-09T00:59:50.284Z,14.65
2024-05-09T01:00:31.363Z,14.54
2024-05-09T01:01:26.785Z,14.58
2024-05-09T01:02:25.735Z,14.64
2024-05-09T01:03:25.927Z,14.61
2024-05-09T01:09:10.114Z,14.72
2024-05-09T01:09:43.092Z,14.75
2024-05-09T01:10:45.225Z,14.75
2024-05-09T01:11:43.207Z,14.76
2024-05-09T01:12:43.096Z,14.81
2024-05-09T01:13:43.176Z,14.86
2024-05-09T01:31:39.585Z,15.12
2024-05-09T01:32:12.656Z,15.12
2024-05-09T01:33:13.343Z,15.10
2024-05-09T01:34:12.528Z,15.13
2024-05-09T01:35:12.523Z,15.16
2024-05-09T01:36:12.504Z,15.18
2024-05-09T01:37:12.515Z,15.19
2024-05-09T01:38:12.570Z,15.20
2024-05-09T01:39:12.517Z,15.23
2024-05-09T01:43:52.662Z,15.33
2024-05-09T01:44:25.634Z,15.33
2024-05-09T01:45:25.551Z,15.34
2024-05-09T01:46:25.549Z,15.27
2024-05-09T01:51:05.773Z,15.19
2024-05-09T02:07:13.280Z,14.96
2024-05-09T02:07:46.294Z,14.99
2024-05-09T02:08:46.279Z,15.03
2024-05-09T02:09:46.265Z,15.05
2024-05-09T02:10:46.526Z,15.03
2024-05-09T02:11:46.443Z,15.07
2024-05-09T02:12:46.274Z,15.12
2024-05-09T02:13:46.306Z,15.12
2024-05-09T02:14:46.286Z,15.12
2024-05-09T02:15:46.292Z,15.14
2024-05-09T02:16:46.318Z,15.19
2024-05-09T02:17:46.490Z,15.20
2024-05-09T02:18:46.407Z,15.22
2024-05-09T02:19:46.315Z,15.26
2024-05-09T02:20:46.322Z,15.26
2024-05-09T02:21:46.308Z,15.30
2024-05-09T02:22:46.351Z,15.30
2024-05-09T02:23:46.319Z,15.31
2024-05-09T02:24:46.299Z,15.33
2024-05-09T02:25:46.333Z,15.23
2024-05-09T02:26:46.311Z,15.07
2024-05-09T02:27:46.359Z,14.93
2024-05-09T02:30:22.918Z,14.74
2024-05-09T02:30:51.665Z,14.63
2024-05-09T02:31:50.792Z,14.72
2024-05-09T02:35:26.612Z,14.79
2024-05-09T02:35:59.380Z,14.78
2024-05-09T02:36:59.422Z,14.82
2024-05-09T02:37:59.691Z,14.88
2024-05-09T02:44:48.176Z,15.10
2024-05-09T02:45:21.244Z,15.12
2024-05-09T02:46:21.179Z,15.09
2024-05-09T02:47:21.497Z,15.12
2024-05-09T02:52:07.659Z,15.14
2024-05-09T02:52:40.611Z,15.12
2024-05-09T02:53:40.634Z,15.14
2024-05-09T02:54:40.690Z,15.16
2024-05-09T02:55:40.636Z,15.18
2024-05-09T03:01:25.269Z,15.19
2024-05-09T03:01:58.082Z,15.18
2024-05-09T03:02:58.161Z,15.20
2024-05-09T03:03:58.209Z,15.19
2024-05-09T03:04:58.295Z,15.20
2024-05-09T03:05:58.021Z,15.20
2024-05-09T03:06:58.008Z,15.20
2024-05-09T03:07:58.070Z,15.20
2024-05-09T03:08:58.023Z,15.18
2024-05-09T03:09:58.022Z,15.23
2024-05-09T03:10:58.052Z,15.20
2024-05-09T03:11:58.183Z,15.22
2024-05-09T03:12:58.002Z,15.12
2024-05-09T03:20:11.631Z,14.99
2024-05-09T03:20:40.251Z,14.85
2024-05-09T03:21:38.834Z,14.74
2024-05-09T03:22:38.815Z,14.72
2024-05-09T03:23:38.941Z,14.65
2024-05-09T03:24:38.830Z,14.68
2024-05-09T03:25:39.057Z,14.70
2024-05-09T03:26:38.901Z,14.72
2024-05-09T03:27:38.823Z,14.76
2024-05-09T03:30:10.202Z,14.85
2024-05-09T03:30:43.559Z,14.93
2024-05-09T03:31:43.247Z,14.99
2024-05-09T03:32:43.275Z,15.03
2024-05-09T03:33:43.305Z,15.10
2024-05-09T03:34:43.181Z,15.12
2024-05-09T03:38:21.461Z,15.23
2024-05-09T03:38:52.098Z,15.26
2024-05-09T03:39:52.113Z,15.26
2024-05-09T03:40:52.236Z,15.25
2024-05-09T03:42:19.223Z,15.27
2024-05-09T03:42:52.228Z,15.29
2024-05-09T03:43:52.277Z,15.27
2024-05-09T03:44:52.240Z,15.27
2024-05-09T03:45:52.247Z,15.29
2024-05-09T03:46:52.263Z,15.31
2024-05-09T03:47:52.650Z,15.33
2024-05-09T03:48:52.284Z,15.31
2024-05-09T03:49:52.250Z,15.31
2024-05-09T03:50:52.358Z,15.33
2024-05-09T03:51:52.236Z,15.29
2024-05-09T03:52:52.262Z,15.31
2024-05-09T03:53:52.244Z,15.33
2024-05-09T03:54:52.249Z,15.34
2024-05-09T03:55:52.272Z,15.33
2024-05-09T03:56:52.350Z,15.33
2024-05-09T03:57:52.243Z,15.36
2024-05-09T03:58:52.302Z,15.33
2024-05-09T03:59:52.244Z,15.36
2024-05-09T04:00:53.226Z,15.30
2024-05-09T04:01:52.392Z,15.30
2024-05-09T04:02:52.359Z,15.26
2024-05-09T04:03:52.366Z,15.30
2024-05-09T04:04:52.371Z,15.29
2024-05-09T04:05:52.275Z,15.29
2024-05-09T04:06:52.278Z,15.27
2024-05-09T04:07:52.297Z,15.27
2024-05-09T04:08:52.276Z,15.29
2024-05-09T04:09:52.254Z,15.29
2024-05-09T04:10:52.280Z,15.27
2024-05-09T04:11:52.544Z,15.27
2024-05-09T04:12:52.283Z,15.27
2024-05-09T04:13:52.313Z,15.25
2024-05-09T04:14:52.289Z,15.19
2024-05-09T04:15:52.275Z,15.14
2024-05-09T04:16:52.327Z,14.99
2024-05-09T04:17:52.558Z,14.99
2024-05-09T04:18:52.336Z,14.85
2024-05-09T04:19:52.293Z,14.81
2024-05-09T04:20:52.325Z,14.76
2024-05-09T04:23:26.571Z,14.67
2024-05-09T04:23:56.683Z,14.74
2024-05-09T04:24:56.663Z,14.76
2024-05-09T04:27:28.033Z,14.76
2024-05-09T04:28:01.087Z,14.84
2024-05-09T04:29:01.092Z,14.86
2024-05-09T04:30:01.031Z,14.91
2024-05-09T04:31:01.035Z,14.95
2024-05-09T04:32:01.098Z,14.99
2024-05-09T04:33:01.140Z,15.02
2024-05-09T04:34:01.111Z,15.09
2024-05-09T04:35:01.063Z,15.09
2024-05-09T04:36:01.043Z,15.14
2024-05-09T04:37:01.026Z,15.19
2024-05-09T04:38:08.326Z,15.18
2024-05-09T04:39:08.293Z,15.20
2024-05-09T04:41:39.702Z,15.27
2024-05-09T04:52:46.576Z,15.20
2024-05-09T04:53:19.657Z,15.13
2024-05-09T04:55:19.497Z,15.06
2024-05-09T04:56:19.567Z,15.06
2024-05-09T04:57:19.510Z,15.07
2024-05-09T04:58:19.513Z,15.05
2024-05-09T04:59:19.538Z,15.02
2024-05-09T05:00:28.584Z,15.00
2024-05-09T05:01:20.557Z,14.95
2024-05-09T05:23:09.244Z,15.26
2024-05-09T05:23:42.285Z,15.26
2024-05-09T05:24:42.180Z,15.30
2024-05-09T05:25:42.182Z,15.27
2024-05-09T05:26:42.255Z,15.30
2024-05-09T05:27:42.180Z,15.26
2024-05-09T05:28:42.178Z,15.25
2024-05-09T05:29:42.240Z,15.22
2024-05-09T05:30:42.186Z,15.23
2024-05-09T05:33:13.794Z,15.25
2024-05-09T05:33:46.632Z,15.22
2024-05-09T05:34:46.557Z,15.19
2024-05-09T05:35:46.526Z,15.27
2024-05-09T05:36:46.536Z,15.29
2024-05-09T05:37:46.552Z,15.33
2024-05-09T05:38:46.634Z,15.37
2024-05-09T05:41:17.930Z,15.30
2024-05-09T05:41:50.883Z,15.33
2024-05-09T05:42:50.884Z,15.26
2024-05-09T05:43:50.955Z,15.31
2024-05-09T05:44:50.895Z,15.37
2024-05-09T05:45:50.889Z,15.36
2024-05-09T05:46:50.971Z,15.37
2024-05-09T05:47:51.091Z,15.43
2024-05-09T05:48:50.988Z,15.46
2024-05-09T05:49:50.955Z,15.48
2024-05-09T05:50:50.979Z,15.53
2024-05-09T05:51:50.884Z,15.55
2024-05-09T05:52:50.963Z,15.58
2024-05-09T05:53:50.913Z,15.61
2024-05-09T05:58:30.973Z,15.69
2024-05-09T05:59:03.998Z,15.71
2024-05-09T06:00:07.082Z,15.74
2024-05-09T06:01:04.972Z,15.75
2024-05-09T06:02:04.080Z,15.75
2024-05-09T06:03:04.064Z,15.78
2024-05-09T06:05:35.439Z,15.72
2024-05-09T06:06:08.322Z,15.75
2024-05-09T06:07:08.296Z,15.71
2024-05-09T06:08:08.475Z,15.75
2024-05-09T06:09:08.317Z,15.74
2024-05-09T06:10:17.008Z,15.74
2024-05-09T06:11:09.379Z,15.78
2024-05-09T06:12:08.449Z,15.77
2024-05-09T06:13:08.302Z,15.80
2024-05-09T06:14:08.352Z,15.81
2024-05-09T06:16:39.689Z,15.88
2024-05-09T06:17:12.756Z,15.92
2024-05-09T06:18:13.106Z,15.92
2024-05-09T06:32:34.411Z,15.81
2024-05-09T06:33:05.568Z,15.78
2024-05-09T06:34:05.226Z,15.77
2024-05-09T06:35:05.192Z,15.81
2024-05-09T06:37:36.574Z,15.84
2024-05-09T06:38:09.916Z,15.77
2024-05-09T06:42:49.627Z,15.84
2024-05-09T06:43:22.606Z,15.85
2024-05-09T06:44:22.712Z,15.89
2024-05-09T06:45:22.607Z,15.88
2024-05-09T06:56:31.426Z,15.71
2024-05-09T06:57:01.774Z,15.65
2024-05-09T06:58:01.796Z,15.71
2024-05-09T06:59:01.832Z,15.69
2024-05-09T07:00:01.779Z,15.72
2024-05-09T07:01:01.799Z,15.72
2024-05-09T07:02:01.798Z,15.54
2024-05-09T07:03:05.359Z,15.65
2024-05-09T07:04:01.899Z,15.34
2024-05-09T07:05:02.009Z,15.47
2024-05-09T07:06:01.921Z,15.40
2024-05-09T07:07:01.784Z,15.47
2024-05-09T07:08:01.812Z,15.48
2024-05-09T07:09:01.804Z,15.38
2024-05-09T07:10:01.789Z,15.46
2024-05-09T07:12:34.287Z,15.65
2024-05-09T07:13:06.211Z,15.66
2024-05-09T07:14:06.273Z,15.50
2024-05-09T07:15:06.134Z,15.47
2024-05-09T07:16:06.145Z,15.44
2024-05-09T07:17:06.316Z,15.57
2024-05-09T07:18:06.226Z,15.64
2024-05-09T07:22:46.576Z,15.66
2024-05-09T07:23:19.407Z,15.69
2024-05-09T07:24:19.204Z,15.75
2024-05-09T07:25:19.204Z,15.82
2024-05-09T07:31:03.617Z,16.10
2024-05-09T07:31:36.609Z,16.08
2024-05-09T07:32:36.803Z,16.02
2024-05-09T07:50:34.113Z,16.60
2024-05-09T07:52:23.559Z,16.54
2024-05-09T07:53:33.166Z,16.52
2024-05-09T07:53:41.932Z,16.31
2024-05-09T07:54:34.368Z,16.31
2024-05-09T07:57:17.379Z,16.40
2024-05-09T07:57:50.325Z,16.50
2024-05-09T07:58:50.245Z,16.58
2024-05-09T07:59:50.196Z,16.65
2024-05-09T08:01:20.210Z,16.62
2024-05-09T08:01:50.262Z,16.58
2024-05-09T08:02:50.291Z,16.61
2024-05-09T08:20:30.364Z,17.10
2024-05-09T08:20:56.480Z,17.17
2024-05-09T08:21:55.535Z,17.16
2024-05-09T08:22:55.469Z,17.19
2024-05-09T08:23:55.477Z,17.22
2024-05-09T08:24:55.483Z,17.14
2024-05-09T08:25:55.485Z,17.06
2024-05-09T08:26:55.472Z,16.99
2024-05-09T08:27:55.538Z,17.05
2024-05-09T08:28:55.492Z,16.93
2024-05-09T08:29:55.513Z,16.85
2024-05-09T08:30:55.603Z,16.93
2024-05-09T08:31:55.484Z,16.74
2024-05-09T08:35:31.287Z,16.74
2024-05-09T08:36:04.207Z,16.75
2024-05-09T08:44:10.773Z,16.83
2024-05-09T08:44:43.694Z,16.72
2024-05-09T08:45:45.566Z,16.80
2024-05-09T08:46:43.630Z,16.96
2024-05-09T08:47:43.822Z,16.90
2024-05-09T08:50:28.741Z,16.75
2024-05-09T08:50:49.137Z,16.89
2024-05-09T08:51:48.074Z,16.93
2024-05-09T08:52:48.005Z,16.95
2024-05-09T08:53:48.006Z,17.02
2024-05-09T08:54:48.063Z,17.09
2024-05-09T09:00:36.938Z,17.45
2024-05-09T09:01:06.534Z,17.54
2024-05-09T09:02:05.545Z,17.45
2024-05-09T09:03:05.533Z,17.52
2024-05-09T09:04:32.547Z,17.55
2024-05-09T09:05:05.502Z,17.65
2024-05-09T09:06:05.503Z,17.64
2024-05-09T09:07:05.461Z,17.79
2024-05-09T09:08:05.452Z,17.74
2024-05-09T09:09:05.442Z,17.86
2024-05-09T09:10:07.053Z,17.88
2024-05-09T09:11:15.689Z,17.97
2024-05-09T09:12:15.674Z,18.02
2024-05-09T09:13:15.950Z,17.84
2024-05-09T09:14:15.684Z,17.82
2024-05-09T09:15:15.679Z,17.67
2024-05-09T09:16:15.673Z,17.74
2024-05-09T09:17:15.769Z,17.72
2024-05-09T09:18:16.028Z,17.85
2024-05-09T09:19:45.249Z,17.75
2024-05-09T09:27:09.300Z,17.35
2024-05-09T09:27:42.023Z,17.41
2024-05-09T09:28:41.992Z,17.41
2024-05-09T09:29:41.986Z,17.55
2024-05-09T09:30:42.037Z,17.50
2024-05-09T09:31:41.976Z,17.52
2024-05-09T09:32:42.058Z,17.67
2024-05-09T09:33:42.074Z,17.71
2024-05-09T09:39:26.410Z,17.89
2024-05-09T09:39:59.411Z,17.97
2024-05-09T09:45:44.178Z,18.24
2024-05-09T09:46:16.936Z,18.26
2024-05-09T09:47:16.816Z,18.19
2024-05-09T09:48:16.947Z,18.16
2024-05-09T09:49:17.037Z,17.95
2024-05-09T09:50:20.872Z,18.04
2024-05-09T09:51:17.785Z,18.17
2024-05-09T09:52:17.061Z,18.27
2024-05-09T09:53:16.856Z,18.31
2024-05-09T09:54:16.799Z,18.24
2024-05-09T10:04:18.675Z,18.61
2024-05-09T10:04:51.674Z,18.72
2024-05-09T10:05:51.609Z,18.65
2024-05-09T10:06:51.644Z,18.46
2024-05-09T10:07:51.590Z,18.62
2024-05-09T10:08:51.600Z,18.55
2024-05-09T10:12:27.464Z,18.69
2024-05-09T10:13:00.651Z,18.88
2024-05-09T10:14:00.284Z,18.83
2024-05-09T10:15:00.285Z,18.82
2024-05-09T10:16:00.349Z,18.80
2024-05-09T10:22:49.045Z,19.00
2024-05-09T10:23:22.061Z,19.11
2024-05-09T10:24:22.055Z,19.21
2024-05-09T10:25:22.238Z,19.26
2024-05-09T10:26:22.053Z,19.27
2024-05-09T10:27:22.040Z,19.24
2024-05-09T10:28:22.079Z,19.26
2024-05-09T10:29:22.044Z,19.27
2024-05-09T10:30:29.599Z,19.17
2024-05-09T10:31:23.100Z,19.33
2024-05-09T10:32:22.147Z,19.33
2024-05-09T10:38:06.490Z,19.64
2024-05-09T10:38:39.458Z,19.52
2024-05-09T10:39:39.616Z,19.51
2024-05-09T10:40:39.551Z,19.35
2024-05-09T10:41:39.465Z,19.47
2024-05-09T10:42:39.500Z,19.51
2024-05-09T10:43:39.451Z,19.54
2024-05-09T10:44:39.459Z,19.68
2024-05-09T10:48:15.637Z,19.69
2024-05-09T10:48:48.804Z,19.66
2024-05-09T10:49:48.301Z,19.65
2024-05-09T10:52:22.073Z,19.83
2024-05-09T10:52:52.690Z,19.60
2024-05-09T10:53:52.757Z,19.65
2024-05-09T10:54:52.822Z,19.82
2024-05-09T10:55:52.793Z,19.76
2024-05-09T10:56:52.838Z,19.82
2024-05-09T10:57:52.998Z,19.85
2024-05-09T10:58:52.964Z,19.99
2024-05-09T10:59:53.009Z,19.97
2024-05-09T11:00:53.162Z,19.89
2024-05-09T11:01:53.196Z,19.99
2024-05-09T11:02:53.028Z,20.10
2024-05-09T11:03:53.278Z,20.09
2024-05-09T11:04:53.275Z,19.86
2024-05-09T11:05:53.310Z,19.73
2024-05-09T11:06:53.195Z,19.69
2024-05-09T11:07:53.181Z,19.50
2024-05-09T11:08:53.244Z,19.60
2024-05-09T11:09:53.329Z,19.58
2024-05-09T11:10:53.540Z,19.76
2024-05-09T11:11:53.430Z,19.86
2024-05-09T11:12:54.514Z,19.95
2024-05-09T11:13:53.532Z,20.00
2024-05-09T11:25:02.321Z,19.62
2024-05-09T11:25:32.701Z,19.73
2024-05-09T11:26:32.688Z,19.78
2024-05-09T11:27:32.741Z,19.68
2024-05-09T11:28:32.739Z,19.68
2024-05-09T11:29:32.716Z,19.83
2024-05-09T11:30:32.816Z,19.88
2024-05-09T11:31:33.046Z,19.82
2024-05-09T11:32:33.021Z,20.00
2024-05-09T11:33:32.860Z,20.16
2024-05-09T11:34:32.854Z,20.00
2024-05-09T11:35:32.690Z,20.01
2024-05-09T11:36:32.757Z,20.09
2024-05-09T11:37:34.584Z,20.16
2024-05-09T11:38:32.710Z,20.13
2024-05-09T11:39:32.720Z,20.10
2024-05-09T11:40:34.550Z,20.28
2024-05-09T11:41:32.722Z,20.37
2024-05-09T11:42:32.765Z,20.33
2024-05-09T11:47:12.854Z,20.13
2024-05-09T11:47:45.862Z,20.10
2024-05-09T11:48:45.843Z,19.97
2024-05-09T11:49:45.854Z,20.10
2024-05-09T11:50:45.761Z,20.27
2024-05-09T11:51:45.777Z,20.47
2024-05-09T11:52:45.766Z,20.56
2024-05-09T11:53:45.768Z,20.45
2024-05-09T11:54:45.790Z,20.42
2024-05-09T11:55:45.767Z,20.48
2024-05-09T11:56:45.772Z,20.35
2024-05-09T11:57:45.786Z,20.48
2024-05-09T11:58:45.758Z,20.48
2024-05-09T11:59:45.758Z,20.41
2024-05-09T12:00:46.231Z,20.35
2024-05-09T12:01:45.971Z,20.34
2024-05-09T12:03:12.848Z,20.42
2024-05-09T12:03:45.903Z,20.52
2024-05-09T12:04:45.988Z,20.58
2024-05-09T12:05:46.001Z,20.69
2024-05-09T12:06:45.809Z,20.47
2024-05-09T12:07:45.770Z,20.51
2024-05-09T12:08:45.774Z,20.67
2024-05-09T12:09:45.819Z,20.40
2024-05-09T12:10:46.064Z,20.47
2024-05-09T12:11:45.798Z,20.55
2024-05-09T12:12:45.800Z,20.67
2024-05-09T12:13:45.790Z,20.69
2024-05-09T12:14:45.776Z,20.67
2024-05-09T12:15:45.792Z,20.72
2024-05-09T12:16:45.832Z,20.92
2024-05-09T12:17:47.789Z,20.71
2024-05-09T12:18:45.909Z,20.68
2024-05-09T12:19:45.842Z,20.80
2024-05-09T12:20:45.768Z,20.93
2024-05-09T12:21:45.789Z,20.93
2024-05-09T12:22:45.772Z,20.74
2024-05-09T12:23:45.780Z,20.71
2024-05-09T12:24:45.826Z,20.51
2024-05-09T12:25:45.768Z,20.78
2024-05-09T12:26:45.768Z,20.89
2024-05-09T12:27:45.817Z,21.02
2024-05-09T12:28:45.793Z,21.03
2024-05-09T12:29:45.812Z,20.92
2024-05-09T12:30:45.860Z,21.06
2024-05-09T12:31:45.819Z,21.27
2024-05-09T12:32:45.943Z,21.40
2024-05-09T12:33:45.827Z,21.24
2024-05-09T12:34:45.830Z,21.38
2024-05-09T12:35:48.202Z,21.37
2024-05-09T12:40:34.427Z,21.33
2024-05-09T12:40:59.950Z,21.44
2024-05-09T12:41:58.862Z,21.64
2024-05-09T12:45:34.601Z,21.78
2024-05-09T12:46:07.652Z,21.69
2024-05-09T12:47:07.553Z,21.86
2024-05-09T12:48:08.185Z,21.75
2024-05-09T12:49:07.797Z,21.71
2024-05-09T12:50:10.896Z,21.88
2024-05-09T12:51:08.581Z,21.82
2024-05-09T12:52:07.609Z,21.81
2024-05-09T12:53:07.583Z,21.81
2024-05-09T12:54:07.603Z,21.76
2024-05-09T13:02:01.296Z,21.71
2024-05-09T13:02:33.831Z,21.66
2024-05-09T13:03:33.821Z,21.62
2024-05-09T13:04:34.020Z,21.75
2024-05-09T13:05:33.937Z,21.73
2024-05-09T13:06:33.738Z,21.93
2024-05-09T13:07:33.696Z,21.72
2024-05-09T13:08:33.674Z,21.55
2024-05-09T13:09:33.704Z,21.62
2024-05-09T13:10:33.894Z,21.75
2024-05-09T13:11:33.725Z,21.75
2024-05-09T13:12:33.687Z,21.66
2024-05-09T13:13:33.676Z,21.81
2024-05-09T13:15:03.191Z,21.62
2024-05-09T13:15:33.847Z,21.55
2024-05-09T13:16:34.026Z,21.73
2024-05-09T13:17:33.978Z,21.89
2024-05-09T13:18:34.057Z,21.85
2024-05-09T13:19:34.003Z,21.79
2024-05-09T13:22:05.569Z,21.88
2024-05-09T13:22:38.349Z,21.90
2024-05-09T13:23:43.368Z,22.04
2024-05-09T13:24:38.457Z,22.10
2024-05-09T13:25:38.479Z,21.83
2024-05-09T13:26:38.364Z,22.06
2024-05-09T13:27:38.429Z,22.00
2024-05-09T13:35:31.520Z,22.40
2024-05-09T13:36:04.510Z,22.37
2024-05-09T13:37:04.502Z,22.35
2024-05-09T13:38:05.159Z,22.40
2024-05-09T13:39:04.523Z,22.44
2024-05-09T13:40:07.078Z,22.48
2024-05-09T13:41:04.497Z,22.33
2024-05-09T13:42:04.485Z,22.21
2024-05-09T13:43:11.778Z,22.35
2024-05-09T13:44:11.727Z,22.16
2024-05-09T13:45:11.792Z,22.28
2024-05-09T13:46:11.764Z,22.17
2024-05-09T13:47:11.764Z,22.24
2024-05-09T13:48:11.932Z,22.03
2024-05-09T13:49:12.809Z,22.20
2024-05-09T13:50:20.126Z,22.14
2024-05-09T13:51:12.739Z,22.23
2024-05-09T13:52:11.800Z,21.97
2024-05-09T13:53:11.777Z,22.01
2024-05-09T13:54:11.756Z,21.93
2024-05-09T13:55:11.822Z,21.90
2024-05-09T13:56:11.752Z,21.90
2024-05-09T13:57:11.745Z,22.09
2024-05-09T13:58:11.856Z,22.17
2024-05-09T13:59:11.765Z,22.28
2024-05-09T14:00:22.252Z,22.23
2024-05-09T14:01:12.875Z,22.20
2024-05-09T14:02:11.847Z,22.14
2024-05-09T14:03:11.887Z,22.34
2024-05-09T14:04:11.876Z,22.18
2024-05-09T14:05:11.968Z,22.06
2024-05-09T14:06:13.216Z,22.16
2024-05-09T14:07:11.816Z,22.10
2024-05-09T14:08:11.765Z,22.20
2024-05-09T14:19:17.937Z,22.18
2024-05-09T14:19:50.927Z,22.27
2024-05-09T14:20:50.915Z,22.38
2024-05-09T14:21:50.985Z,22.10
2024-05-09T14:22:50.940Z,22.03
2024-05-09T14:23:50.917Z,22.04
2024-05-09T14:24:50.994Z,22.17
2024-05-09T14:25:52.327Z,22.21
2024-05-09T14:26:50.915Z,22.23
2024-05-09T14:27:50.969Z,22.31
2024-05-09T14:28:50.928Z,22.23
2024-05-09T14:32:26.716Z,22.65
2024-05-09T14:32:59.705Z,22.88
2024-05-09T14:33:59.763Z,23.09
2024-05-09T14:34:59.696Z,23.13
2024-05-09T14:35:59.645Z,23.00
2024-05-09T14:36:59.637Z,23.07
2024-05-09T14:37:59.631Z,23.02
2024-05-09T14:38:59.619Z,23.10
2024-05-09T14:39:59.736Z,23.15
2024-05-09T14:49:01.663Z,23.10
2024-05-09T14:49:30.075Z,22.88
2024-05-09T14:50:35.930Z,22.79
2024-05-09T14:51:31.159Z,22.89
2024-05-09T15:02:36.243Z,23.15
2024-05-09T15:03:09.234Z,22.99
2024-05-09T15:04:09.351Z,22.83
2024-05-09T15:05:09.366Z,23.00
2024-05-09T15:06:09.400Z,23.14
2024-05-09T15:07:11.325Z,23.18
2024-05-09T15:08:09.241Z,23.14
2024-05-09T15:09:09.259Z,23.13
2024-05-09T15:10:16.572Z,23.28
2024-05-09T15:11:10.316Z,23.31
2024-05-09T15:12:09.214Z,23.40
2024-05-09T15:13:11.344Z,23.47
2024-05-09T15:14:09.233Z,23.14
2024-05-09T15:15:09.229Z,23.04
2024-05-09T15:16:09.264Z,22.99
2024-05-09T15:17:09.256Z,22.80
2024-05-09T15:18:09.380Z,22.95
2024-05-09T15:19:09.322Z,22.82
2024-05-09T15:20:09.871Z,22.95
2024-05-09T15:24:58.557Z,22.48
2024-05-09T15:25:29.038Z,22.56
2024-05-09T15:26:28.892Z,22.66
2024-05-09T15:27:28.942Z,22.82
2024-05-09T15:28:28.946Z,22.92
2024-05-09T15:29:28.905Z,22.73
2024-05-09T15:30:31.997Z,22.76
2024-05-09T15:31:29.103Z,22.63
2024-05-09T15:32:29.132Z,22.65
2024-05-09T15:33:28.945Z,22.69
2024-05-09T15:34:28.958Z,22.62
2024-05-09T15:35:28.919Z,22.75
2024-05-09T15:36:28.962Z,22.76
2024-05-09T15:37:28.909Z,22.83
2024-05-09T15:38:28.905Z,22.83
2024-05-09T15:39:28.933Z,22.69
2024-05-09T15:40:36.043Z,22.38
2024-05-09T15:41:29.912Z,22.55
2024-05-09T15:42:28.970Z,22.82
2024-05-09T15:43:29.033Z,22.88
2024-05-09T15:44:28.924Z,22.92
2024-05-09T15:45:28.994Z,22.97
2024-05-09T15:46:29.016Z,22.97
2024-05-09T15:47:28.959Z,23.09
2024-05-09T15:48:29.055Z,23.09
2024-05-09T15:49:29.055Z,22.85
2024-05-09T15:50:36.727Z,22.88
2024-05-09T15:51:30.116Z,22.79
2024-05-09T15:52:28.912Z,22.85
2024-05-09T15:53:28.917Z,22.80
2024-05-09T15:54:29.002Z,22.72
2024-05-09T15:55:28.925Z,22.58
2024-05-09T15:56:28.927Z,22.89
2024-05-09T15:57:28.942Z,22.76
2024-05-09T15:58:28.954Z,22.73
2024-05-09T15:59:28.924Z,22.86
2024-05-09T16:00:36.780Z,22.96
2024-05-09T16:01:30.046Z,22.88
2024-05-09T16:02:29.098Z,22.88
2024-05-09T16:03:29.015Z,22.96
2024-05-09T16:04:29.109Z,22.97
2024-05-09T16:05:29.044Z,22.90
2024-05-09T16:06:29.001Z,22.82
2024-05-09T16:07:28.933Z,22.73
2024-05-09T16:08:28.930Z,22.90
2024-05-09T16:09:28.973Z,23.00
2024-05-09T16:10:32.495Z,22.86
2024-05-09T16:11:29.980Z,22.99
2024-05-09T16:12:28.959Z,22.56
2024-05-09T16:13:29.007Z,22.72
2024-05-09T16:14:28.949Z,22.92
2024-05-09T16:15:29.095Z,23.06
2024-05-09T16:16:28.994Z,23.14
2024-05-09T16:17:28.995Z,23.28
2024-05-09T16:18:28.987Z,23.23
2024-05-09T16:19:28.968Z,23.38
2024-05-09T16:20:37.216Z,23.32
2024-05-09T16:30:31.855Z,23.24
2024-05-09T16:31:00.458Z,23.23
2024-05-09T16:34:35.182Z,23.18
2024-05-09T16:35:08.122Z,23.27
2024-05-09T16:36:08.132Z,23.20
2024-05-09T16:37:08.200Z,23.06
2024-05-09T16:38:08.132Z,23.20
2024-05-09T16:46:01.309Z,23.40
2024-05-09T16:46:34.244Z,23.51
2024-05-09T16:47:34.416Z,23.65
2024-05-09T16:50:08.389Z,23.82
2024-05-09T16:50:38.605Z,23.86
2024-05-09T16:51:38.680Z,23.79
2024-05-09T16:52:38.589Z,23.79
2024-05-09T16:53:38.595Z,23.86
2024-05-09T16:54:38.634Z,23.55
2024-05-09T16:55:38.859Z,23.32
2024-05-09T16:56:38.605Z,23.28
2024-05-09T16:57:38.624Z,23.27
2024-05-09T17:02:18.947Z,22.97
2024-05-09T17:02:51.706Z,22.96
2024-05-09T17:03:51.910Z,23.04
2024-05-09T17:04:51.643Z,22.93
2024-05-09T17:05:51.883Z,22.80
2024-05-09T17:06:51.691Z,22.82
2024-05-09T17:07:51.648Z,22.75
2024-05-09T17:08:51.760Z,22.75
2024-05-09T17:09:51.642Z,22.44
2024-05-09T17:10:51.931Z,22.52
2024-05-09T17:11:51.674Z,22.50
2024-05-09T17:12:51.662Z,22.72
2024-05-09T17:13:51.648Z,22.76
2024-05-09T17:14:51.647Z,22.79
2024-05-09T17:15:51.735Z,22.85
2024-05-09T17:16:51.671Z,22.85
2024-05-09T17:17:51.684Z,23.02
2024-05-09T17:18:51.690Z,23.10
2024-05-09T17:19:51.658Z,23.03
2024-05-09T17:23:28.284Z,23.00
2024-05-09T17:24:00.368Z,23.10
2024-05-09T17:25:00.551Z,23.15
2024-05-09T17:26:00.348Z,23.21
2024-05-09T17:27:00.372Z,23.24
2024-05-09T17:28:00.447Z,22.79
2024-05-09T17:29:00.363Z,22.86
2024-05-09T17:30:00.348Z,22.96
2024-05-09T17:31:00.385Z,22.93
2024-05-09T17:32:00.390Z,23.04
2024-05-09T17:33:00.427Z,23.17
2024-05-09T17:34:00.500Z,23.15
2024-05-09T17:40:49.149Z,22.95
2024-05-09T17:41:22.097Z,23.00
2024-05-09T17:42:22.088Z,22.65
2024-05-09T17:43:22.340Z,22.85
2024-05-09T17:44:36.656Z,22.96
2024-05-09T17:45:22.286Z,22.88
2024-05-09T17:46:22.451Z,22.90
2024-05-09T17:47:22.451Z,22.90
2024-05-09T17:51:00.613Z,22.72
2024-05-09T17:51:31.318Z,22.52
2024-05-09T17:52:31.305Z,22.47
2024-05-09T17:53:31.278Z,22.38
2024-05-09T17:54:31.379Z,22.48
2024-05-09T17:55:31.457Z,22.61
2024-05-09T17:56:31.375Z,22.65
2024-05-09T17:57:31.423Z,22.68
2024-05-09T17:58:31.550Z,22.52
2024-05-09T17:59:31.517Z,22.52
2024-05-09T18:00:38.529Z,22.27
2024-05-09T18:01:32.700Z,22.31
2024-05-09T18:07:16.266Z,21.92
2024-05-09T18:07:48.998Z,22.14
2024-05-09T18:08:48.991Z,22.20
2024-05-09T18:09:49.081Z,22.25
2024-05-09T18:10:50.157Z,22.24
2024-05-09T18:11:49.048Z,22.31
2024-05-09T18:12:49.046Z,22.37
2024-05-09T18:13:56.299Z,22.24
2024-05-09T18:14:56.285Z,22.18
2024-05-09T18:15:56.291Z,22.21
2024-05-09T18:16:56.279Z,22.30
2024-05-09T18:20:40.503Z,22.35
2024-05-09T18:21:05.992Z,22.40
2024-05-09T18:53:03.075Z,21.90
2024-05-09T18:53:36.025Z,21.99
2024-05-09T18:54:36.075Z,21.99
2024-05-09T18:55:36.094Z,22.01
2024-05-09T18:56:36.032Z,22.03
2024-05-09T18:57:36.079Z,22.04
2024-05-09T18:58:36.019Z,22.00
2024-05-09T18:59:36.038Z,22.04
2024-05-09T19:00:38.867Z,22.04
2024-05-09T19:01:37.120Z,22.09
2024-05-09T19:02:36.179Z,22.04
2024-05-09T19:03:36.419Z,22.11
2024-05-09T19:06:07.548Z,22.14
2024-05-09T19:06:40.488Z,22.16
2024-05-09T19:07:40.370Z,21.90
2024-05-09T19:08:40.382Z,21.85
2024-05-09T19:09:40.439Z,21.76
2024-05-09T19:10:40.679Z,21.85
2024-05-09T19:11:40.519Z,21.69
2024-05-09T19:31:27.807Z,21.48
2024-05-09T19:32:00.795Z,21.49
2024-05-09T19:33:00.816Z,21.48
2024-05-09T19:34:00.781Z,21.49
2024-05-09T19:35:00.756Z,21.52
2024-05-09T19:36:00.772Z,21.58
2024-05-09T19:37:00.803Z,21.61
2024-05-09T19:38:00.753Z,21.59
2024-05-09T19:39:00.763Z,21.62
2024-05-09T19:40:01.004Z,21.62
2024-05-09T19:41:00.926Z,21.65
2024-05-09T19:42:00.745Z,21.65
2024-05-09T19:43:00.990Z,21.64